Time,TemperatureF,DewpointF,PressureIn,WindDirection,WindDirectionDegrees,WindSpeedMPH,WindSpeedGustMPH,Humidity,HourlyPrecipIn,Conditions,Clouds,dailyrainin,SoftwareType,DateUTC
2013-05-30 00:10:00,60.6,60.0,30.01,SE,130,0.0,0.0,96,0.00,,,1.49,weatherlink.com 1.10,2013-05-30 04:10:00,
2013-05-30 00:25:00,60.2,59.0,30.01,SE,130,0.0,1.0,96,0.00,,,1.49,weatherlink.com 1.10,2013-05-30 04:25:00,
2013-05-30 00:40:00,60.0,59.0,30.01,SE,130,0.0,0.0,97,0.00,,,1.49,weatherlink.com 1.10,2013-05-30 04:40:00,
2013-05-30 00:55:00,60.0,59.0,30.01,SE,130,0.0,2.0,97,0.00,,,0.00,weatherlink.com 1.10,2013-05-30 04:55:00,
2013-05-30 01:10:00,59.9,59.0,30.01,South,182,0.0,0.0,97,0.00,,,0.00,weatherlink.com 1.10,2013-05-30 05:10:00,
2013-05-30 01:25:00,59.8,59.0,30.02,ENE,78,1.0,3.0,97,0.00,,,0.00,weatherlink.com 1.10,2013-05-30 05:25:00,
2013-05-30 01:40:00,59.6,59.0,30.01,ESE,103,0.0,3.0,97,0.00,,,0.00,weatherlink.com 1.10,2013-05-30 05:40:00,
2013-05-30 01:55:00,59.3,59.0,30.02,ENE,76,1.0,3.0,97,0.00,,,0.00,weatherlink.com 1.10,2013-05-30 05:55:00,
2013-05-30 02:10:00,58.9,58.0,30.02,ENE,76,0.0,0.0,97,0.00,,,0.00,weatherlink.com 1.10,2013-05-30 06:10:00,
2013-05-30 02:25:00,58.2,57.0,30.02,ENE,76,0.0,1.0,97,0.00,,,0.00,weatherlink.com 1.10,2013-05-30 06:25:00,
2013-05-30 02:40:00,57.8,57.0,30.02,ENE,76,0.0,1.0,97,0.00,,,0.00,weatherlink.com 1.10,2013-05-30 06:40:00,
2013-05-30 02:55:00,57.6,57.0,30.02,ENE,76,0.0,2.0,97,0.00,,,0.00,weatherlink.com 1.10,2013-05-30 06:55:00,
2013-05-30 03:10:00,57.4,57.0,30.03,ENE,76,0.0,2.0,97,0.00,,,0.00,weatherlink.com 1.10,2013-05-30 07:10:00,
2013-05-30 03:25:00,57.1,56.0,30.03,ENE,76,0.0,1.0,97,0.00,,,0.00,weatherlink.com 1.10,2013-05-30 07:25:00,
2013-05-30 03:40:00,56.9,56.0,30.02,ENE,76,0.0,0.0,97,0.00,,,0.00,weatherlink.com 1.10,2013-05-30 07:40:00,
2013-05-30 03:55:00,56.7,56.0,30.02,ENE,76,0.0,0.0,97,0.00,,,0.00,weatherlink.com 1.10,2013-05-30 07:55:00,
2013-05-30 04:10:00,56.5,56.0,30.02,ENE,76,0.0,1.0,97,0.00,,,0.00,weatherlink.com 1.10,2013-05-30 08:10:00,
2013-05-30 04:26:00,56.0,55.0,30.01,ENE,76,0.0,0.0,97,0.00,,,0.00,weatherlink.com 1.10,2013-05-30 08:26:00,
2013-05-30 04:41:00,55.8,55.0,30.02,ENE,76,0.0,0.0,97,0.00,,,0.00,weatherlink.com 1.10,2013-05-30 08:41:00,
2013-05-30 04:56:00,55.6,55.0,30.02,ENE,76,0.0,0.0,97,0.00,,,0.00,weatherlink.com 1.10,2013-05-30 08:56:00,
2013-05-30 05:11:00,55.4,55.0,30.03,ENE,76,0.0,0.0,97,0.00,,,0.00,weatherlink.com 1.10,2013-05-30 09:11:00,
2013-05-30 05:26:00,55.4,55.0,30.04,ENE,76,0.0,0.0,98,0.00,,,0.00,weatherlink.com 1.10,2013-05-30 09:26:00,
2013-05-30 05:41:00,55.5,55.0,30.04,ENE,76,0.0,0.0,98,0.00,,,0.00,weatherlink.com 1.10,2013-05-30 09:41:00,
2013-05-30 05:56:00,55.3,55.0,30.05,ENE,76,0.0,1.0,98,0.00,,,0.00,weatherlink.com 1.10,2013-05-30 09:56:00,
2013-05-30 06:11:00,55.2,55.0,30.05,ENE,76,0.0,0.0,98,0.00,,,0.00,weatherlink.com 1.10,2013-05-30 10:11:00,
2013-05-30 06:26:00,55.9,55.0,30.05,ENE,76,0.0,0.0,98,0.00,,,0.00,weatherlink.com 1.10,2013-05-30 10:26:00,
2013-05-30 06:41:00,56.9,56.0,30.06,ENE,76,0.0,0.0,98,0.00,,,0.00,weatherlink.com 1.10,2013-05-30 10:41:00,
2013-05-30 06:56:00,58.0,58.0,30.06,ENE,76,0.0,0.0,98,0.00,,,0.00,weatherlink.com 1.10,2013-05-30 10:56:00,
2013-05-30 07:11:00,58.7,58.0,30.07,ENE,76,0.0,0.0,98,0.00,,,0.00,weatherlink.com 1.10,2013-05-30 11:11:00,
2013-05-30 07:26:00,60.1,60.0,30.07,ENE,76,0.0,0.0,98,0.00,,,0.00,weatherlink.com 1.10,2013-05-30 11:26:00,
2013-05-30 07:41:00,61.4,61.0,30.07,ENE,76,0.0,0.0,98,0.00,,,0.00,weatherlink.com 1.10,2013-05-30 11:41:00,
2013-05-30 07:56:00,63.6,63.0,30.07,ENE,76,0.0,0.0,98,0.00,,,0.00,weatherlink.com 1.10,2013-05-30 11:56:00,
2013-05-30 08:11:00,65.4,65.0,30.07,ENE,76,0.0,0.0,97,0.00,,,0.00,weatherlink.com 1.10,2013-05-30 12:11:00,
2013-05-30 08:26:00,67.2,66.0,30.07,ENE,76,0.0,0.0,96,0.00,,,0.00,weatherlink.com 1.10,2013-05-30 12:26:00,
2013-05-30 08:41:00,69.2,67.0,30.07,NNE,16,0.0,0.0,92,0.00,,,0.00,weatherlink.com 1.10,2013-05-30 12:41:00,
2013-05-30 08:56:00,70.9,68.0,30.07,NNW,332,1.0,3.0,90,0.00,,,0.00,weatherlink.com 1.10,2013-05-30 12:56:00,
2013-05-30 09:12:00,72.7,68.0,30.06,NW,317,1.0,2.0,86,0.00,,,0.00,weatherlink.com 1.10,2013-05-30 13:12:00,
2013-05-30 09:26:00,74.1,69.0,30.06,NNW,335,4.0,5.0,83,0.00,,,0.00,weatherlink.com 1.10,2013-05-30 13:26:00,
2013-05-30 09:41:00,75.3,68.0,30.06,NNW,327,4.0,6.0,77,0.00,,,0.00,weatherlink.com 1.10,2013-05-30 13:41:00,
2013-05-30 09:56:00,76.1,67.0,30.06,West,259,0.0,7.0,74,0.00,,,0.00,weatherlink.com 1.10,2013-05-30 13:56:00,
2013-05-30 10:12:00,77.0,67.0,30.06,NNE,15,2.0,7.0,71,0.00,,,0.00,weatherlink.com 1.10,2013-05-30 14:12:00,
2013-05-30 10:27:00,78.0,65.0,30.06,NW,307,9.0,10.0,65,0.00,,,0.00,weatherlink.com 1.10,2013-05-30 14:27:00,
2013-05-30 10:42:00,78.6,65.0,30.06,ENE,57,3.0,14.0,63,0.00,,,0.00,weatherlink.com 1.10,2013-05-30 14:42:00,
2013-05-30 10:57:00,79.2,64.0,30.06,NW,316,9.0,13.0,60,0.00,,,0.00,weatherlink.com 1.10,2013-05-30 14:57:00,
2013-05-30 11:12:00,79.8,64.0,30.07,West,281,4.0,11.0,59,0.00,,,0.00,weatherlink.com 1.10,2013-05-30 15:12:00,
2013-05-30 11:27:00,80.3,64.0,30.07,NNE,15,4.0,10.0,58,0.00,,,0.00,weatherlink.com 1.10,2013-05-30 15:27:00,
2013-05-30 11:42:00,80.4,64.0,30.06,WNW,291,5.0,12.0,58,0.00,,,0.00,weatherlink.com 1.10,2013-05-30 15:42:00,
2013-05-30 11:57:00,81.2,64.0,30.06,WNW,302,6.0,10.0,56,0.00,,,0.00,weatherlink.com 1.10,2013-05-30 15:57:00,
2013-05-30 12:12:00,81.9,65.0,30.06,NE,42,2.0,11.0,56,0.00,,,0.00,weatherlink.com 1.10,2013-05-30 16:12:00,
2013-05-30 12:27:00,82.5,64.0,30.06,North,355,4.0,11.0,54,0.00,,,0.00,weatherlink.com 1.10,2013-05-30 16:27:00,
2013-05-30 12:42:00,82.6,64.0,30.06,North,355,7.0,11.0,54,0.00,,,0.00,weatherlink.com 1.10,2013-05-30 16:42:00,
2013-05-30 12:57:00,82.8,64.0,30.06,North,10,4.0,9.0,53,0.00,,,0.00,weatherlink.com 1.10,2013-05-30 16:57:00,
2013-05-30 13:12:00,83.8,63.0,30.06,NW,310,4.0,11.0,49,0.00,,,0.00,weatherlink.com 1.10,2013-05-30 17:12:00,
2013-05-30 13:27:00,83.0,63.0,30.05,NNW,346,6.0,11.0,51,0.00,,,0.00,weatherlink.com 1.10,2013-05-30 17:27:00,
2013-05-30 13:42:00,82.4,63.0,30.05,NNW,338,1.0,10.0,52,0.00,,,0.00,weatherlink.com 1.10,2013-05-30 17:42:00,
2013-05-30 13:57:00,83.5,63.0,30.05,NW,326,3.0,9.0,50,0.00,,,0.00,weatherlink.com 1.10,2013-05-30 17:57:00,
2013-05-30 14:12:00,82.7,63.0,30.05,WNW,297,4.0,10.0,51,0.00,,,0.00,weatherlink.com 1.10,2013-05-30 18:12:00,
2013-05-30 14:27:00,84.2,62.0,30.04,NW,316,2.0,8.0,48,0.00,,,0.00,weatherlink.com 1.10,2013-05-30 18:27:00,
2013-05-30 14:42:00,83.7,63.0,30.04,NW,305,5.0,8.0,49,0.00,,,0.00,weatherlink.com 1.10,2013-05-30 18:42:00,
2013-05-30 14:57:00,84.0,62.0,30.04,West,265,7.0,10.0,48,0.00,,,0.00,weatherlink.com 1.10,2013-05-30 18:57:00,
2013-05-30 15:12:00,84.4,60.0,30.04,NNW,344,5.0,8.0,44,0.00,,,0.00,weatherlink.com 1.10,2013-05-30 19:12:00,
2013-05-30 15:27:00,86.0,61.0,30.03,NE,34,1.0,11.0,43,0.00,,,0.00,weatherlink.com 1.10,2013-05-30 19:27:00,
2013-05-30 15:57:00,85.7,61.0,30.02,WSW,255,5.0,12.0,43,0.00,,,0.00,weatherlink.com 1.10,2013-05-30 19:57:00,
2013-05-30 16:12:00,85.1,60.0,30.02,North,355,6.0,11.0,43,0.00,,,0.00,weatherlink.com 1.10,2013-05-30 20:12:00,
2013-05-30 16:27:00,85.5,61.0,30.02,NE,38,2.0,9.0,44,0.00,,,0.00,weatherlink.com 1.10,2013-05-30 20:27:00,
2013-05-30 16:42:00,84.2,62.0,30.02,WNW,302,4.0,8.0,47,0.00,,,0.00,weatherlink.com 1.10,2013-05-30 20:42:00,
2013-05-30 16:58:00,85.9,62.0,30.02,NW,317,1.0,8.0,45,0.00,,,0.00,weatherlink.com 1.10,2013-05-30 20:58:00,
2013-05-30 17:12:00,84.8,62.0,30.02,West,276,2.0,6.0,47,0.00,,,0.00,weatherlink.com 1.10,2013-05-30 21:12:00,
2013-05-30 17:27:00,84.2,62.0,30.02,WNW,300,3.0,5.0,48,0.00,,,0.00,weatherlink.com 1.10,2013-05-30 21:27:00,
2013-05-30 17:42:00,84.6,63.0,30.01,WNW,297,4.0,7.0,49,0.00,,,0.00,weatherlink.com 1.10,2013-05-30 21:42:00,
2013-05-30 17:57:00,84.6,63.0,30.01,NW,321,2.0,9.0,49,0.00,,,0.00,weatherlink.com 1.10,2013-05-30 21:57:00,
2013-05-30 18:12:00,84.1,64.0,30.01,West,281,3.0,5.0,51,0.00,,,0.00,weatherlink.com 1.10,2013-05-30 22:12:00,
2013-05-30 18:27:00,84.3,64.0,30.01,NNE,14,2.0,5.0,51,0.00,,,0.00,weatherlink.com 1.10,2013-05-30 22:27:00,
2013-05-30 18:42:00,84.4,64.0,30.02,WNW,295,2.0,6.0,51,0.00,,,0.00,weatherlink.com 1.10,2013-05-30 22:42:00,
2013-05-30 18:57:00,84.3,66.0,30.02,NNW,344,0.0,5.0,54,0.00,,,0.00,weatherlink.com 1.10,2013-05-30 22:57:00,
2013-05-30 19:12:00,83.9,67.0,30.02,WSW,250,0.0,1.0,58,0.00,,,0.00,weatherlink.com 1.10,2013-05-30 23:12:00,
2013-05-30 19:27:00,83.0,69.0,30.02,WSW,250,0.0,0.0,62,0.00,,,0.00,weatherlink.com 1.10,2013-05-30 23:27:00,
2013-05-30 19:42:00,80.8,68.0,30.02,WSW,250,0.0,0.0,65,0.00,,,0.00,weatherlink.com 1.10,2013-05-30 23:42:00,
2013-05-30 19:58:00,78.7,68.0,30.03,WSW,250,0.0,1.0,69,0.00,,,0.00,weatherlink.com 1.10,2013-05-30 23:58:00,
2013-05-30 20:13:00,76.2,68.0,30.03,WSW,250,0.0,1.0,75,0.00,,,0.00,weatherlink.com 1.10,2013-05-31 00:13:00,
2013-05-30 20:28:00,73.6,67.0,30.03,WSW,250,0.0,1.0,79,0.00,,,0.00,weatherlink.com 1.10,2013-05-31 00:28:00,
2013-05-30 20:43:00,71.9,66.0,30.03,WSW,250,0.0,1.0,81,0.00,,,0.00,weatherlink.com 1.10,2013-05-31 00:43:00,
2013-05-30 20:58:00,70.3,65.0,30.04,WSW,250,0.0,1.0,84,0.00,,,0.00,weatherlink.com 1.10,2013-05-31 00:58:00,
2013-05-30 21:13:00,69.2,65.0,30.03,WSW,250,0.0,1.0,86,0.00,,,0.00,weatherlink.com 1.10,2013-05-31 01:13:00,
2013-05-30 21:28:00,68.0,64.0,30.04,ESE,123,1.0,2.0,87,0.00,,,0.00,weatherlink.com 1.10,2013-05-31 01:28:00,
2013-05-30 21:43:00,66.8,64.0,30.04,ESE,109,0.0,3.0,89,0.00,,,0.00,weatherlink.com 1.10,2013-05-31 01:43:00,
2013-05-30 21:58:00,66.3,63.0,30.05,ESE,109,1.0,2.0,90,0.00,,,0.00,weatherlink.com 1.10,2013-05-31 01:58:00,
2013-05-30 22:13:00,65.6,63.0,30.05,ESE,109,0.0,1.0,91,0.00,,,0.00,weatherlink.com 1.10,2013-05-31 02:13:00,
2013-05-30 22:28:00,65.1,62.0,30.05,ESE,109,0.0,2.0,90,0.00,,,0.00,weatherlink.com 1.10,2013-05-31 02:28:00,
2013-05-30 22:43:00,64.6,62.0,30.05,ESE,109,0.0,2.0,91,0.00,,,0.00,weatherlink.com 1.10,2013-05-31 02:43:00,
2013-05-30 22:58:00,64.1,62.0,30.05,ESE,109,0.0,1.0,92,0.00,,,0.00,weatherlink.com 1.10,2013-05-31 02:58:00,
2013-05-30 23:13:00,63.8,62.0,30.06,SE,128,0.0,2.0,92,0.00,,,0.00,weatherlink.com 1.10,2013-05-31 03:13:00,
2013-05-30 23:28:00,63.5,61.0,30.05,SE,128,0.0,1.0,92,0.00,,,0.00,weatherlink.com 1.10,2013-05-31 03:28:00,
2013-05-30 23:43:00,63.1,61.0,30.05,SE,128,0.0,0.0,92,0.00,,,0.00,weatherlink.com 1.10,2013-05-31 03:43:00,
2013-05-30 23:58:00,62.3,60.0,30.05,SE,128,0.0,2.0,92,0.00,,,0.00,weatherlink.com 1.10,2013-05-31 03:58:00,